Time;durP1;ratioP1;P1;durP2;ratioP2;P2;SDS_P1;SDS_P2;PMS_P1;PMS_P2;Temp;Humidity;BMP_temperature;BMP_pressure;BME280_temperature;BME280_humidity;BME280_pressure;Samples;Min_cycle;Max_cycle;Signal;HPM_P1;HPM_P2
2021/01/27 03:10:32;;;;;;;26.43;14.57;;;;;;;-1.38;84.01;98609.52;4182235;82;21183;-86
2021/01/27 03:16:39;;;;;;;34.90;16.67;;;;;;;-1.45;83.89;98605.92;4170455;83;21204;-88
2021/01/27 03:22:49;;;;;;;32.67;18.33;;;;;;;-1.43;83.83;98608.30;4171576;83;21153;-87
2021/01/27 03:29:01;;;;;;;40.13;16.07;;;;;;;-1.42;83.99;98597.25;4117419;84;21231;-87
2021/01/27 03:35:27;;;;;;;28.03;14.20;;;;;;;-1.42;84.02;98591.08;4117695;83;21792;-88
2021/01/27 03:41:46;;;;;;;29.20;14.43;;;;;;;-1.36;84.25;98591.98;4446345;79;22998;-87
2021/01/27 03:48:06;;;;;;;33.00;16.63;;;;;;;-1.43;84.04;98591.64;4385663;79;21197;-86
2021/01/27 03:54:13;;;;;;;34.43;16.80;;;;;;;-1.43;84.26;98590.30;4389398;80;21143;-87
2021/01/27 04:00:16;;;;;;;32.10;18.17;;;;;;;-1.41;84.28;98596.70;4389607;80;21405;-88
2021/01/27 04:06:18;;;;;;;34.07;17.37;;;;;;;-1.33;84.29;98600.00;4388700;80;21153;-87
2021/01/27 04:12:19;;;;;;;36.50;17.63;;;;;;;-1.32;84.45;98598.89;4379224;80;21162;-88
2021/01/27 04:18:21;;;;;;;32.00;16.97;;;;;;;-1.34;84.62;98598.39;4379845;79;21151;-89
2021/01/27 04:24:22;;;;;;;31.93;16.47;;;;;;;-1.34;84.65;98600.54;4396108;79;21173;-87
2021/01/27 04:30:29;;;;;;;30.63;16.20;;;;;;;-1.32;84.85;98606.95;4398136;79;21995;-89
2021/01/27 04:36:30;;;;;;;;;;;;;;;-1.34;85.01;98605.11;4384083;79;21161;-86
2021/01/27 04:42:32;;;;;;;31.27;16.17;;;;;;;-1.33;85.08;98606.71;4356959;80;20181;-86
2021/01/27 04:49:08;;;;;;;36.33;17.10;;;;;;;-1.33;85.11;98598.09;4357088;80;21189;-87
2021/01/27 04:55:40;;;;;;;33.53;17.23;;;;;;;-1.32;85.19;98596.20;4271178;82;21607;-88
2021/01/27 05:02:13;;;;;;;32.53;17.93;;;;;;;-1.32;85.28;98595.66;4258879;82;21215;-87
2021/01/27 05:08:29;;;;;;;34.17;18.53;;;;;;;-1.34;85.38;98595.70;4209780;83;21182;-87
2021/01/27 05:14:31;;;;;;;37.90;16.87;;;;;;;-1.31;85.37;98603.95;4194379;83;21181;-88
2021/01/27 05:20:33;;;;;;;37.73;17.27;;;;;;;-1.26;85.62;98597.66;4324215;80;21147;-87
2021/01/27 05:26:45;;;;;;;35.07;17.00;;;;;;;-1.26;85.57;98602.48;4344534;81;21174;-87
2021/01/27 05:32:57;;;;;;;31.10;15.97;;;;;;;-1.25;85.58;98601.95;4265963;82;21575;-86
2021/01/27 05:39:15;;;;;;;39.00;16.90;;;;;;;-1.25;85.72;98598.69;4344586;80;21157;-87
2021/01/27 05:45:37;;;;;;;27.43;14.57;;;;;;;-1.25;85.68;98594.66;4304740;81;21667;-87
2021/01/27 05:51:39;;;;;;;32.77;16.57;;;;;;;-1.22;85.71;98597.30;4329698;81;21158;-87
2021/01/27 05:57:42;;;;;;;30.60;16.63;;;;;;;-1.21;85.86;98598.87;4321575;81;21162;-87
2021/01/27 06:04:12;;;;;;;31.83;16.53;;;;;;;-1.18;85.79;98606.31;4326204;80;21197;-86
2021/01/27 06:10:36;;;;;;;33.47;16.50;;;;;;;-1.19;85.93;98606.08;4322748;81;21162;-86
2021/01/27 06:16:45;;;;;;;30.30;15.20;;;;;;;-1.20;85.99;98609.31;4320560;81;21170;-90
2021/01/27 06:23:15;;;;;;;35.87;17.20;;;;;;;-1.15;86.07;98611.07;4337259;81;21162;-87
2021/01/27 06:29:39;;;;;;;33.00;17.57;;;;;;;-1.16;85.95;98615.64;4330040;81;21139;-88
2021/01/27 06:36:13;;;;;;;37.90;19.37;;;;;;;-1.16;86.14;98622.92;4329050;81;21177;-88
2021/01/27 06:42:32;;;;;;;35.77;19.97;;;;;;;-1.15;86.22;98611.88;4341818;80;21179;-87
2021/01/27 06:48:52;;;;;;;40.40;21.33;;;;;;;-1.12;86.29;98617.97;4342680;81;21152;-86
2021/01/27 06:55:33;;;;;;;44.90;20.90;;;;;;;-1.09;86.43;98622.72;4353120;80;21144;-87
2021/01/27 07:02:18;;;;;;;47.70;22.27;;;;;;;-1.10;86.43;98621.15;4360247;81;21200;-88
2021/01/27 07:08:57;;;;;;;43.40;22.10;;;;;;;-1.02;86.63;98627.66;4341137;81;21157;-87
2021/01/27 07:15:48;;;;;;;48.77;23.57;;;;;;;-0.98;86.73;98629.96;4265312;81;21200;-88
2021/01/27 07:22:32;;;;;;;52.03;25.33;;;;;;;-0.90;86.87;98639.97;4346016;80;21130;-86
2021/01/27 07:29:13;;;;;;;50.93;25.67;;;;;;;-0.87;86.76;98639.34;4338081;81;21376;-86
2021/01/27 07:35:29;;;;;;;43.57;23.40;;;;;;;-0.79;86.88;98640.75;4354878;80;21187;-86
2021/01/27 07:41:42;;;;;;;54.00;26.17;;;;;;;-0.74;86.68;98644.65;4355686;80;21714;-86
2021/01/27 07:47:55;;;;;;;58.70;27.53;;;;;;;-0.73;86.79;98644.87;4308981;81;21172;-86
2021/01/27 07:54:12;;;;;;;55.87;28.47;;;;;;;-0.66;86.82;98646.55;4348756;81;21589;-87
2021/01/27 12:29:58;;;;;;;27.17;13.78;;;;;;;0.55;81.31;98673.41;4428278;77;141256;-84
2021/01/27 12:36:27;;;;;;;28.73;13.45;;;;;;;0.63;81.49;98664.53;4174640;83;35888;-84
2021/01/27 12:42:39;;;;;;;22.25;12.75;;;;;;;0.73;81.20;98668.80;4216347;83;21370;-84
2021/01/27 12:48:44;;;;;;;27.82;13.72;;;;;;;0.63;80.89;98680.70;4220234;83;21172;-83
2021/01/27 13:01:43;;;;;;;30.40;15.58;;;;;;;0.42;81.50;98664.95;4425634;78;22614;-85
2021/01/27 13:08:22;;;;;;;29.80;14.05;;;;;;;0.49;82.16;98667.14;4339000;80;21518;-85
2021/01/27 13:14:24;;;;;;;25.35;13.03;;;;;;;0.62;81.87;98671.58;4182687;83;21318;-84
2021/01/27 13:20:28;;;;;;;27.10;13.25;;;;;;;0.47;81.67;98678.23;4216373;82;21199;-85
2021/01/27 13:26:41;;;;;;;29.32;12.78;;;;;;;0.26;81.64;98672.44;4266391;82;21204;-85
2021/01/27 13:33:06;;;;;;;30.08;13.93;;;;;;;0.16;81.79;98694.30;4252991;82;21603;-84
2021/01/27 13:39:37;;;;;;;27.52;13.95;;;;;;;0.16;81.79;98694.30;4244796;82;21661;-84
2021/01/27 13:45:39;;;;;;;30.00;13.60;;;;;;;0.03;81.80;98672.56;4240147;82;21317;-85
2021/01/27 13:51:43;;;;;;;47.25;20.15;;;;;;;0.14;81.55;98694.61;4241417;82;21180;-85
2021/01/27 13:57:45;;;;;;;37.63;18.70;;;;;;;0.19;81.83;98686.36;4216282;82;21171;-85
2021/01/27 14:03:48;;;;;;;40.90;20.23;;;;;;;0.24;81.85;98698.33;4246415;82;21161;-85
2021/01/27 14:09:56;;;;;;;43.60;20.92;;;;;;;0.33;82.10;98692.40;4242980;82;21232;-84
2021/01/27 14:15:58;;;;;;;41.70;20.10;;;;;;;0.33;82.02;98694.31;4267287;82;21855;-85
2021/01/27 14:22:18;;;;;;;44.35;22.52;;;;;;;0.32;82.11;98718.29;4216849;82;21210;-85
2021/01/27 14:28:45;;;;;;;49.10;25.88;;;;;;;0.13;82.39;98697.59;4174553;83;21211;-84
2021/01/27 14:34:56;;;;;;;52.40;24.98;;;;;;;0.13;82.39;98697.59;4220986;82;21166;-85
2021/01/27 14:41:17;;;;;;;49.50;24.70;;;;;;;0.00;82.83;98692.03;4213679;82;21687;-85
2021/01/27 14:47:19;;;;;;;57.23;27.52;;;;;;;0.00;83.24;98709.52;4266858;82;21620;-85
2021/01/27 14:53:24;;;;;;;54.98;27.22;;;;;;;-0.08;83.37;98700.87;4252774;82;21656;-85
2021/01/27 14:59:36;;;;;;;60.98;31.20;;;;;;;-0.09;83.30;98698.48;4238216;82;21203;-85
2021/01/27 15:05:38;;;;;;;64.25;30.25;;;;;;;-0.16;83.77;98691.44;4177617;83;21221;-85
2021/01/27 15:11:40;;;;;;;56.45;27.82;;;;;;;-0.22;83.89;98690.78;4221160;82;22091;-85
2021/01/27 15:17:55;;;;;;;58.08;27.45;;;;;;;-0.23;84.14;98701.31;4224355;82;21189;-85
2021/01/27 15:24:22;;;;;;;55.43;25.32;;;;;;;-0.35;84.17;98690.90;4181335;82;21217;-85
2021/01/27 15:37:55;;;;;;;58.75;26.30;;;;;;;-0.24;84.40;98707.00;4209235;82;21656;-84
2021/01/27 15:52:28;;;;;;;65.90;26.87;;;;;;;-0.25;84.31;98710.23;3927354;90;21884;-84
2021/01/27 15:58:51;;;;;;;67.75;28.12;;;;;;;-0.34;84.30;98700.55;4446545;78;23945;-84
2021/01/27 16:04:53;;;;;;;67.85;30.23;;;;;;;-0.42;84.31;98706.67;4379106;80;21200;-84
2021/01/27 16:10:55;;;;;;;65.62;30.35;;;;;;;-0.48;84.53;98706.03;4381204;80;21197;-84
2021/01/27 16:16:57;;;;;;;69.37;30.80;;;;;;;-0.48;84.53;98706.03;4385454;79;22056;-85
2021/01/27 16:22:58;;;;;;;60.08;28.90;;;;;;;-0.49;84.40;98716.56;4382422;79;21347;-84
2021/01/27 16:29:01;;;;;;;61.25;27.80;;;;;;;-0.49;84.21;98715.75;4376443;80;21178;-84
2021/01/27 16:35:04;;;;;;;56.83;26.20;;;;;;;-0.49;84.25;98717.10;4379724;80;21174;-84
2021/01/27 16:41:05;;;;;;;65.83;27.27;;;;;;;-0.50;84.17;98715.52;4374969;80;21173;-84
2021/01/27 16:47:08;;;;;;;48.40;21.68;;;;;;;-0.54;83.96;98708.62;4300712;81;21229;-84
2021/01/27 16:53:10;;;;;;;46.30;21.50;;;;;;;-0.55;83.53;98711.62;4260839;81;21364;-84
2021/01/27 16:59:11;;;;;;;47.95;20.72;;;;;;;-0.59;83.68;98714.13;4282224;82;21191;-84
2021/01/27 17:05:15;;;;;;;55.63;25.43;;;;;;;-0.62;83.65;98714.74;4267930;82;21203;-84
2021/01/27 17:11:17;;;;;;;64.00;27.80;;;;;;;-0.64;83.51;98716.16;4238617;83;21195;-84
2021/01/27 17:17:18;;;;;;;59.93;26.43;;;;;;;-0.65;83.57;98717.25;4241339;81;21753;-84
2021/01/27 17:23:21;;;;;;;63.60;28.27;;;;;;;-0.69;83.53;98717.06;4235291;83;21190;-83
2021/01/27 17:29:24;;;;;;;68.70;29.33;;;;;;;-0.70;83.62;98714.14;4242970;82;21542;-84
2021/01/27 17:35:33;;;;;;;68.22;27.38;;;;;;;-0.73;83.63;98704.01;4209773;83;10000014;-83
2021/01/27 17:41:35;;;;;;;59.90;26.03;;;;;;;-0.74;83.77;98711.84;4235531;81;21944;-83
2021/01/27 17:47:43;;;;;;;57.33;23.17;;;;;;;-0.76;83.56;98705.17;4238786;83;21232;-83
2021/01/27 17:53:45;;;;;;;53.30;23.43;;;;;;;-0.80;83.52;98709.59;4252408;81;21235;-84
2021/01/27 17:59:46;;;;;;;52.53;24.00;;;;;;;-0.79;83.44;98705.25;4277825;81;21230;-84
2021/01/27 18:05:48;;;;;;;65.23;27.67;;;;;;;-0.79;83.75;98700.41;4274779;81;21177;-83
2021/01/27 18:11:49;;;;;;;61.37;25.63;;;;;;;-0.77;83.75;98689.61;4275780;81;21162;-83
2021/01/27 18:17:51;;;;;;;59.60;25.50;;;;;;;-0.81;83.58;98692.66;4272744;81;21856;-83
2021/01/27 18:23:53;;;;;;;60.07;24.53;;;;;;;-0.84;83.75;98691.13;4278442;81;21235;-83
2021/01/27 18:29:55;;;;;;;56.10;24.57;;;;;;;-0.86;83.64;98686.06;4279141;81;21325;-84
2021/01/27 18:35:58;;;;;;;68.23;26.43;;;;;;;-0.89;83.58;98683.22;4159350;81;10000416;-83
2021/01/27 18:41:59;;;;;;;75.47;27.77;;;;;;;-0.91;83.62;98686.19;4271005;81;21221;-83
2021/01/27 18:48:05;;;;;;;71.53;27.07;;;;;;;-0.95;83.63;98687.91;4273595;81;21206;-83
2021/01/27 18:54:07;;;;;;;70.87;26.97;;;;;;;-0.96;83.48;98680.16;4276319;81;21202;-84
2021/01/27 19:00:12;;;;;;;56.33;24.37;;;;;;;-0.95;83.50;98677.70;4303663;81;21254;-83
2021/01/27 19:06:16;;;;;;;58.50;24.80;;;;;;;-0.94;83.62;98680.66;4294640;81;21177;-83
2021/01/27 19:12:17;;;;;;;65.07;27.80;;;;;;;-0.91;83.25;98684.07;4297400;81;21762;-83
2021/01/27 19:18:19;;;;;;;60.47;24.67;;;;;;;-0.89;83.43;98683.99;4293553;81;21368;-82
2021/01/27 19:24:22;;;;;;;65.43;26.53;;;;;;;-0.86;83.49;98676.66;4297865;81;21191;-84
2021/01/27 19:30:26;;;;;;;56.97;25.17;;;;;;;-0.84;83.54;98675.01;4294505;81;21194;-84
2021/01/27 19:36:27;;;;;;;60.87;28.13;;;;;;;-0.87;83.70;98675.08;4291924;81;21312;-83
2021/01/27 19:42:32;;;;;;;117.10;39.70;;;;;;;-0.85;83.47;98677.46;4292662;81;21213;-84
2021/01/27 19:48:34;;;;;;;112.03;38.40;;;;;;;-0.78;83.43;98681.29;4296344;81;21346;-83
2021/01/27 19:54:42;;;;;;;63.63;27.63;;;;;;;-0.75;83.61;98683.93;4286301;81;21360;-84
2021/01/27 20:00:47;;;;;;;66.37;28.50;;;;;;;-0.77;83.11;98682.09;4291959;81;22491;-83
2021/01/27 20:06:49;;;;;;;60.27;26.57;;;;;;;-0.77;83.28;98676.72;4296297;81;21374;-84
2021/01/27 20:12:52;;;;;;;69.87;28.60;;;;;;;-0.76;83.40;98696.56;4294147;81;21872;-83
2021/01/27 20:18:54;;;;;;;79.60;30.90;;;;;;;-0.77;83.30;98694.19;4296552;81;21269;-83
2021/01/27 20:24:55;;;;;;;82.17;33.43;;;;;;;-0.84;83.30;98686.56;4299831;81;21708;-83
2021/01/27 20:30:58;;;;;;;80.87;34.07;;;;;;;-0.87;83.25;98683.69;4290227;81;21315;-84
2021/01/27 20:37:00;;;;;;;74.53;32.43;;;;;;;-0.86;83.35;98679.92;4293383;81;21356;-83
2021/01/27 20:43:02;;;;;;;75.10;32.70;;;;;;;-0.91;83.54;98682.73;4294953;81;21213;-83
2021/01/27 20:49:04;;;;;;;101.63;39.77;;;;;;;-0.88;83.40;98682.91;4292313;81;21402;-83
2021/01/27 20:55:10;;;;;;;102.37;43.87;;;;;;;-0.99;83.17;98682.92;4288482;81;21720;-83
2021/01/27 21:01:17;;;;;;;84.95;36.93;;;;;;;-1.00;83.35;98685.34;4296340;81;21198;-83
2021/01/27 21:07:16;;;;;;;96.37;38.07;;;;;;;-0.95;83.60;98683.88;4291585;81;22044;-82
2021/01/27 21:13:18;;;;;;;105.73;42.37;;;;;;;-1.00;83.26;98691.30;4291188;81;21246;-83
2021/01/27 21:19:19;;;;;;;100.67;43.47;;;;;;;-1.09;83.33;98689.88;4292808;81;21216;-83
2021/01/27 21:25:23;;;;;;;114.07;41.60;;;;;;;-1.22;83.05;98690.73;4297376;81;21205;-82
2021/01/27 21:31:24;;;;;;;99.83;41.80;;;;;;;-1.37;83.40;98691.11;4291859;81;21789;-83
2021/01/27 21:37:26;;;;;;;102.27;41.60;;;;;;;-1.38;83.55;98690.06;4294201;81;21182;-84
2021/01/27 21:43:31;;;;;;;104.47;41.23;;;;;;;-1.42;83.42;98690.41;4298423;81;21169;-83
2021/01/27 21:49:32;;;;;;;116.17;44.60;;;;;;;-1.43;83.37;98682.13;4294756;81;21212;-82
2021/01/27 21:55:34;;;;;;;105.77;43.13;;;;;;;-1.52;83.29;98679.93;4296603;81;21592;-83
2021/01/27 22:01:36;;;;;;;119.87;48.87;;;;;;;-1.51;83.52;98686.88;4296565;81;21372;-82
2021/01/27 22:07:38;;;;;;;132.37;53.97;;;;;;;-1.56;83.45;98687.78;4200995;82;21189;-82
2021/01/27 22:13:40;;;;;;;131.00;53.67;;;;;;;-1.49;83.44;98680.66;4244089;82;21268;-83
2021/01/27 22:19:42;;;;;;;128.57;51.87;;;;;;;-1.47;83.46;98672.53;4243480;82;21247;-83
2021/01/27 22:25:43;;;;;;;118.30;48.73;;;;;;;-1.39;83.76;98691.17;4244766;82;22190;-82
2021/01/27 22:31:45;;;;;;;119.07;49.17;;;;;;;-1.35;83.73;98685.43;4250485;82;21222;-82
2021/01/27 22:37:46;;;;;;;137.13;55.47;;;;;;;-1.33;83.83;98688.04;4255154;82;21225;-84
2021/01/27 22:43:48;;;;;;;159.40;59.90;;;;;;;-1.34;83.61;98691.84;4253902;82;21209;-83
2021/01/27 22:49:49;;;;;;;175.07;63.77;;;;;;;-1.35;83.49;98680.86;4258185;82;21564;-82
2021/01/27 22:55:51;;;;;;;161.13;62.70;;;;;;;-1.24;83.18;98681.41;4249688;82;21202;-82
2021/01/27 23:01:53;;;;;;;160.57;63.83;;;;;;;-1.21;83.38;98681.59;4284406;82;21180;-83
2021/01/27 23:07:55;;;;;;;148.07;53.73;;;;;;;-1.15;83.28;98668.81;4274461;82;21381;-82
2021/01/27 23:13:57;;;;;;;161.60;57.53;;;;;;;-1.25;82.80;98668.52;4276453;82;21319;-82
2021/01/27 23:19:58;;;;;;;158.37;57.90;;;;;;;-1.43;82.85;98674.87;4266675;82;21878;-82
2021/01/27 23:26:00;;;;;;;151.00;58.70;;;;;;;-1.52;83.05;98674.02;4267839;82;21661;-82
2021/01/27 23:32:02;;;;;;;149.20;56.20;;;;;;;-1.52;82.96;98667.31;4257791;82;21209;-81
2021/01/27 23:38:08;;;;;;;153.47;57.60;;;;;;;-1.60;82.80;98658.63;4254441;82;21216;-82
2021/01/27 23:44:09;;;;;;;156.37;59.17;;;;;;;-1.63;83.15;98652.53;4270998;82;21198;-81
2021/01/27 23:50:13;;;;;;;141.87;54.93;;;;;;;-1.71;83.24;98654.59;4262721;82;21489;-83
2021/01/27 23:56:16;;;;;;;147.53;55.70;;;;;;;-1.80;82.98;98650.48;4259536;82;21379;-81
